Time;durP1;ratioP1;P1;durP2;ratioP2;P2;SDS_P1;SDS_P2;PMS_P1;PMS_P2;Temp;Humidity;BMP_temperature;BMP_pressure;BME280_temperature;BME280_humidity;BME280_pressure;Samples;Min_cycle;Max_cycle;Signal;HPM_P1;HPM_P2
2023/10/24 00:01:11;;;;;;;10.73;3.60;;;12.00;99.90;;;;;;5034727;28;20578;-83
2023/10/24 00:03:37;;;;;;;10.47;2.97;;;12.20;99.90;;;;;;5034969;28;20684;-82
2023/10/24 00:06:03;;;;;;;13.40;2.90;;;12.00;99.90;;;;;;5035090;28;20178;-82
2023/10/24 00:08:29;;;;;;;14.97;3.03;;;12.00;99.90;;;;;;5034764;28;20174;-82
2023/10/24 00:11:05;;;;;;;7.70;2.20;;;12.20;99.90;;;;;;5016914;28;20640;-83
2023/10/24 00:13:31;;;;;;;7.77;2.73;;;12.20;99.90;;;;;;5034673;28;20174;-83
2023/10/24 00:15:57;;;;;;;11.13;3.07;;;11.90;99.90;;;;;;5034741;28;20174;-83
2023/10/24 00:18:24;;;;;;;7.33;2.27;;;11.90;99.90;;;;;;5034622;28;20190;-82
2023/10/24 00:20:49;;;;;;;7.07;2.73;;;11.90;99.90;;;;;;5034426;28;20180;-82
2023/10/24 00:23:15;;;;;;;13.60;2.70;;;11.90;99.90;;;;;;5034394;28;20182;-83
2023/10/24 00:25:41;;;;;;;7.10;2.33;;;11.90;99.90;;;;;;5034759;28;20177;-84
2023/10/24 00:28:06;;;;;;;9.23;2.70;;;11.90;99.90;;;;;;5034612;28;20223;-84
2023/10/24 00:30:32;;;;;;;5.90;2.20;;;11.80;99.90;;;;;;5034723;28;20181;-85
2023/10/24 00:32:57;;;;;;;5.50;2.13;;;11.70;99.90;;;;;;5034501;28;20532;-85
2023/10/24 00:35:23;;;;;;;8.23;2.30;;;11.70;99.90;;;;;;5034494;28;20248;-83
2023/10/24 00:37:50;;;;;;;7.50;2.50;;;11.70;99.90;;;;;;5034616;28;20170;-83
2023/10/24 00:40:15;;;;;;;6.23;2.03;;;11.70;99.90;;;;;;5034116;28;20277;-82
2023/10/24 00:42:41;;;;;;;6.13;2.10;;;11.70;99.90;;;;;;5034516;28;20700;-83
2023/10/24 00:45:07;;;;;;;8.80;2.40;;;11.80;99.90;;;;;;5046520;28;20205;-82
2023/10/24 00:47:33;;;;;;;10.97;2.50;;;11.80;99.90;;;;;;5042301;28;20177;-82
2023/10/24 00:49:59;;;;;;;6.43;2.30;;;11.70;99.90;;;;;;5021014;28;20185;-82
2023/10/24 00:52:25;;;;;;;8.17;2.50;;;11.60;99.90;;;;;;5035458;28;20228;-82
2023/10/24 00:54:51;;;;;;;5.00;2.07;;;11.60;99.90;;;;;;5034173;28;20224;-81
2023/10/24 00:57:17;;;;;;;8.30;2.20;;;11.60;99.90;;;;;;5033845;28;20174;-82
2023/10/24 00:59:44;;;;;;;8.67;2.33;;;11.80;99.90;;;;;;5032534;28;20584;-83
2023/10/24 01:02:11;;;;;;;4.93;1.90;;;11.60;99.90;;;;;;5033819;28;20271;-82
2023/10/24 01:04:39;;;;;;;7.37;1.97;;;11.60;99.90;;;;;;5033908;28;20237;-82
2023/10/24 01:07:05;;;;;;;8.90;2.27;;;11.60;99.90;;;;;;5033820;28;20256;-82
2023/10/24 01:09:31;;;;;;;4.57;2.07;;;11.60;99.90;;;;;;5033632;28;20675;-82
2023/10/24 01:11:57;;;;;;;5.87;2.00;;;11.50;99.90;;;;;;5032040;28;20166;-81
2023/10/24 01:14:23;;;;;;;6.77;2.40;;;11.60;99.90;;;;;;5033537;28;20182;-81
2023/10/24 01:16:49;;;;;;;7.80;2.17;;;11.50;99.90;;;;;;5033712;28;20177;-81
2023/10/24 01:19:15;;;;;;;6.47;2.47;;;11.70;99.90;;;;;;5033632;28;20182;-82
2023/10/24 01:21:46;;;;;;;4.00;2.10;;;11.20;99.90;;;;;;5033188;28;20214;-82
2023/10/24 01:24:15;;;;;;;4.83;2.50;;;11.50;99.90;;;;;;5033199;28;20220;-82
2023/10/24 01:26:42;;;;;;;8.00;2.43;;;11.50;99.90;;;;;;5035124;28;20166;-82
2023/10/24 01:29:08;;;;;;;6.80;2.27;;;11.70;99.90;;;;;;5037108;28;20177;-81
2023/10/24 01:31:34;;;;;;;6.23;2.40;;;11.60;99.90;;;;;;5048570;28;20178;-82
2023/10/24 01:34:00;;;;;;;5.93;2.17;;;11.70;99.90;;;;;;5038466;28;20221;-82
2023/10/24 01:36:26;;;;;;;6.10;2.10;;;11.70;99.90;;;;;;5032448;28;20658;-82
2023/10/24 01:38:51;;;;;;;6.13;1.87;;;11.70;99.90;;;;;;5014888;28;20173;-82
2023/10/24 01:41:17;;;;;;;6.00;2.13;;;11.70;99.90;;;;;;5032029;28;20190;-83
2023/10/24 01:43:43;;;;;;;8.50;2.07;;;11.60;99.90;;;;;;5032938;28;20262;-83
2023/10/24 01:46:08;;;;;;;4.93;2.20;;;11.70;99.90;;;;;;5032448;28;20197;-83
2023/10/24 01:48:34;;;;;;;5.77;2.13;;;11.60;99.90;;;;;;5033138;28;20177;-83
2023/10/24 01:51:00;;;;;;;5.43;1.90;;;11.60;99.90;;;;;;5032309;28;20539;-83
2023/10/24 01:53:25;;;;;;;5.20;2.13;;;11.60;99.90;;;;;;5032332;28;20166;-81
2023/10/24 01:55:51;;;;;;;5.40;2.00;;;11.50;99.90;;;;;;5032712;28;20173;-82
2023/10/24 01:58:16;;;;;;;6.83;2.10;;;11.70;99.90;;;;;;5032674;28;20170;-83
2023/10/24 02:00:42;;;;;;;3.87;1.60;;;11.50;99.90;;;;;;5032396;28;20729;-83
2023/10/24 02:03:07;;;;;;;6.10;1.80;;;11.40;99.90;;;;;;5032572;28;20173;-83
2023/10/24 02:05:33;;;;;;;5.10;1.90;;;11.40;99.90;;;;;;5032406;28;20920;-82
2023/10/24 02:07:59;;;;;;;7.60;2.00;;;11.50;99.90;;;;;;5032041;28;20173;-83
2023/10/24 02:10:25;;;;;;;7.03;2.20;;;11.50;99.90;;;;;;5014329;28;20181;-82
2023/10/24 02:12:50;;;;;;;5.93;2.07;;;11.50;99.90;;;;;;5032453;28;20174;-83
2023/10/24 02:15:16;;;;;;;6.50;2.07;;;11.50;99.90;;;;;;5032285;28;20174;-81
2023/10/24 02:17:41;;;;;;;3.87;1.80;;;11.50;99.90;;;;;;5032415;28;20182;-83
2023/10/24 02:20:08;;;;;;;5.30;2.20;;;11.50;99.90;;;;;;5032227;28;20220;-81
2023/10/24 02:22:34;;;;;;;6.00;2.23;;;11.50;99.90;;;;;;5031837;28;20304;-80
2023/10/24 02:25:01;;;;;;;6.00;2.30;;;11.50;99.90;;;;;;5014100;28;20244;-81
2023/10/24 02:27:27;;;;;;;10.60;2.50;;;11.50;99.90;;;;;;5014233;28;20173;-81
2023/10/24 02:29:53;;;;;;;5.83;2.43;;;11.60;99.90;;;;;;5031140;28;20635;-82
2023/10/24 02:32:19;;;;;;;7.07;2.10;;;11.60;99.90;;;;;;5031964;28;20178;-81
2023/10/24 02:34:51;;;;;;;5.17;2.40;;;11.60;99.90;;;;;;5013870;28;20648;-81
2023/10/24 02:37:17;;;;;;;6.23;2.20;;;11.60;99.90;;;;;;5031692;28;20169;-80
2023/10/24 02:39:43;;;;;;;5.30;2.27;;;11.60;99.90;;;;;;5031730;28;20623;-81
2023/10/24 02:42:09;;;;;;;6.60;2.20;;;12.00;99.90;;;;;;5030560;28;20177;-82
2023/10/24 02:44:34;;;;;;;7.50;2.30;;;11.60;99.90;;;;;;5031852;28;20213;-82
2023/10/24 02:47:00;;;;;;;9.73;2.60;;;11.60;99.90;;;;;;5031084;28;20702;-82
2023/10/24 02:49:25;;;;;;;8.30;2.63;;;11.50;99.90;;;;;;5031634;28;20210;-81
2023/10/24 02:51:51;;;;;;;7.43;2.40;;;11.40;99.90;;;;;;5028238;28;20178;-82
2023/10/24 02:54:17;;;;;;;5.37;2.00;;;11.60;99.90;;;;;;5032050;28;20170;-82
2023/10/24 02:56:43;;;;;;;6.43;2.40;;;11.60;99.90;;;;;;5031637;28;20542;-82
2023/10/24 02:59:09;;;;;;;4.90;2.30;;;11.60;99.90;;;;;;5031939;28;20178;-82
2023/10/24 03:01:35;;;;;;;6.47;2.07;;;11.60;99.90;;;;;;5031701;28;20174;-82
2023/10/24 03:04:00;;;;;;;9.07;2.43;;;11.60;99.90;;;;;;5013973;28;20205;-80
2023/10/24 03:06:26;;;;;;;6.13;2.17;;;11.70;99.90;;;;;;5031381;28;20196;-82
2023/10/24 03:08:52;;;;;;;9.37;2.97;;;11.90;99.90;;;;;;5017522;28;20181;-82
2023/10/24 03:11:24;;;;;;;4.80;2.10;;;11.60;99.90;;;;;;5048250;28;20178;-81
2023/10/24 03:13:52;;;;;;;6.37;2.30;;;11.50;99.90;;;;;;5053900;28;20170;-82
2023/10/24 03:16:17;;;;;;;5.63;2.70;;;11.50;99.90;;;;;;5017553;28;20185;-80
2023/10/24 03:18:43;;;;;;;4.73;2.27;;;11.60;99.90;;;;;;5036366;28;20170;-81
2023/10/24 03:21:09;;;;;;;4.43;2.30;;;11.50;99.90;;;;;;5036703;28;20206;-81
2023/10/24 03:23:34;;;;;;;5.23;2.40;;;11.80;99.90;;;;;;5038314;28;20214;-82
2023/10/24 03:26:04;;;;;;;4.03;2.17;;;11.60;99.90;;;;;;5036872;28;20656;-81
2023/10/24 03:28:30;;;;;;;5.13;2.23;;;11.40;99.90;;;;;;5036746;28;20174;-81
2023/10/24 03:31:04;;;;;;;4.90;2.23;;;11.50;99.90;;;;;;5014535;28;20177;-82
2023/10/24 03:33:31;;;;;;;4.33;2.23;;;11.20;99.90;;;;;;5031285;28;20223;-81
2023/10/24 03:35:57;;;;;;;4.40;2.03;;;11.50;99.90;;;;;;5031094;28;20656;-82
2023/10/24 03:38:23;;;;;;;6.07;2.13;;;11.70;99.90;;;;;;5031110;28;20174;-80
2023/10/24 03:40:49;;;;;;;4.33;1.93;;;11.50;99.90;;;;;;5030919;28;20185;-80
2023/10/24 03:43:16;;;;;;;4.80;2.27;;;11.40;99.90;;;;;;5031187;28;20184;-81
2023/10/24 03:45:41;;;;;;;6.20;2.07;;;11.50;99.90;;;;;;5031192;28;20280;-82
2023/10/24 03:48:07;;;;;;;3.97;2.30;;;11.40;99.90;;;;;;5031114;28;20605;-81
2023/10/24 03:50:39;;;;;;;7.60;2.33;;;11.40;99.90;;;;;;5031167;28;20170;-83
2023/10/24 03:53:06;;;;;;;4.27;2.20;;;11.30;99.90;;;;;;5031058;28;20174;-82
2023/10/24 03:55:35;;;;;;;4.53;2.63;;;11.30;99.90;;;;;;5031310;28;20199;-82
2023/10/24 03:58:00;;;;;;;5.20;2.23;;;11.20;99.90;;;;;;5031358;28;20185;-82
2023/10/24 04:00:26;;;;;;;4.87;2.33;;;11.20;99.90;;;;;;5031257;28;20549;-83
2023/10/24 04:02:55;;;;;;;4.53;2.30;;;11.20;99.90;;;;;;5031011;28;20679;-83
2023/10/24 04:05:22;;;;;;;4.37;2.20;;;11.20;99.90;;;;;;5027281;28;20293;-84
2023/10/24 04:07:48;;;;;;;4.40;2.30;;;11.20;99.90;;;;;;5013243;28;20197;-83
2023/10/24 04:10:15;;;;;;;7.63;2.70;;;11.30;99.90;;;;;;5031389;28;20645;-83
2023/10/24 04:12:41;;;;;;;4.37;2.60;;;11.30;99.90;;;;;;5031419;28;20173;-83
2023/10/24 04:15:08;;;;;;;5.50;2.10;;;11.30;99.90;;;;;;5030770;28;20193;-82
2023/10/24 04:17:34;;;;;;;4.70;2.27;;;11.30;99.90;;;;;;5030246;28;20182;-83
2023/10/24 04:20:00;;;;;;;5.43;2.50;;;11.40;99.90;;;;;;5037433;28;20253;-83
2023/10/24 04:22:25;;;;;;;4.87;2.67;;;11.40;99.90;;;;;;5041983;28;20221;-83
2023/10/24 04:24:51;;;;;;;7.37;2.27;;;11.40;99.90;;;;;;5043776;28;20210;-82
2023/10/24 04:27:17;;;;;;;5.67;2.37;;;11.30;99.90;;;;;;5044355;28;20189;-82
2023/10/24 04:29:47;;;;;;;6.00;2.30;;;11.40;99.90;;;;;;5014267;28;20943;-84
2023/10/24 04:32:13;;;;;;;4.87;2.33;;;11.40;99.90;;;;;;5023039;28;20224;-81
2023/10/24 04:34:39;;;;;;;5.10;2.50;;;11.40;99.90;;;;;;5033534;28;20189;-80
2023/10/24 04:37:05;;;;;;;4.57;2.33;;;11.30;99.90;;;;;;5033879;28;20186;-79
2023/10/24 04:39:30;;;;;;;3.60;2.20;;;10.70;99.90;;;;;;5033967;28;20170;-79
2023/10/24 04:41:56;;;;;;;11.33;2.83;;;11.30;99.90;;;;;;5033984;28;20174;-80
2023/10/24 04:44:22;;;;;;;7.50;2.60;;;11.10;99.90;;;;;;5033930;28;20264;-80
2023/10/24 04:46:48;;;;;;;4.03;2.50;;;11.10;99.90;;;;;;5033959;28;20166;-79
2023/10/24 04:49:15;;;;;;;6.40;2.50;;;11.00;99.90;;;;;;5034006;28;20633;-79
2023/10/24 04:51:41;;;;;;;4.23;2.40;;;11.00;99.90;;;;;;5016151;28;20177;-78
2023/10/24 04:54:07;;;;;;;8.97;2.93;;;10.90;99.90;;;;;;5015924;28;20186;-78
2023/10/24 04:56:33;;;;;;;7.40;2.97;;;10.90;99.90;;;;;;5033504;28;20269;-81
2023/10/24 04:58:58;;;;;;;7.50;2.97;;;10.80;99.90;;;;;;5033460;28;20320;-79
2023/10/24 05:01:24;;;;;;;5.87;2.83;;;10.70;99.90;;;;;;5034020;28;20189;-81
2023/10/24 05:03:50;;;;;;;4.93;2.60;;;10.70;99.90;;;;;;5033662;28;20232;-81
2023/10/24 05:06:15;;;;;;;6.40;2.80;;;10.70;99.90;;;;;;5033566;28;20533;-81
2023/10/24 05:08:41;;;;;;;7.30;2.87;;;10.60;99.90;;;;;;5033383;28;20213;-81
2023/10/24 05:11:07;;;;;;;5.50;2.97;;;10.60;99.90;;;;;;5016046;28;20659;-82
2023/10/24 05:13:33;;;;;;;5.77;2.80;;;10.50;99.90;;;;;;5016127;28;20606;-82
2023/10/24 05:15:58;;;;;;;4.53;2.87;;;10.50;99.90;;;;;;5033669;28;20253;-82
2023/10/24 05:18:24;;;;;;;6.00;2.90;;;10.50;99.90;;;;;;5015481;28;20186;-79
2023/10/24 05:20:50;;;;;;;6.87;3.33;;;10.40;99.90;;;;;;5015323;28;20174;-80
2023/10/24 05:23:16;;;;;;;8.13;3.33;;;10.30;99.90;;;;;;5033463;28;20224;-81
2023/10/24 05:25:42;;;;;;;7.80;3.20;;;10.30;99.90;;;;;;5033218;28;20619;-81
2023/10/24 05:28:08;;;;;;;6.77;3.40;;;10.30;99.90;;;;;;5033257;28;20192;-81
2023/10/24 05:30:36;;;;;;;8.17;3.60;;;10.20;99.90;;;;;;5033321;28;20181;-80
2023/10/24 05:33:03;;;;;;;6.43;3.20;;;10.40;99.90;;;;;;5033214;28;20170;-81
2023/10/24 05:35:29;;;;;;;5.67;3.13;;;10.20;99.90;;;;;;5015253;28;20170;-81
2023/10/24 05:37:55;;;;;;;4.97;3.13;;;10.10;99.90;;;;;;5053719;28;20193;-81
2023/10/24 05:40:21;;;;;;;5.43;3.40;;;10.00;99.90;;;;;;5051974;28;20182;-81
2023/10/24 05:42:47;;;;;;;5.97;3.77;;;9.90;99.90;;;;;;5035734;28;20273;-80
2023/10/24 05:45:12;;;;;;;6.63;3.57;;;9.90;99.90;;;;;;5033150;28;20206;-81
2023/10/24 05:47:38;;;;;;;6.00;3.90;;;10.90;99.90;;;;;;5033416;28;20170;-82
2023/10/24 05:50:04;;;;;;;9.23;3.87;;;9.90;99.90;;;;;;5031950;28;20318;-81
2023/10/24 05:52:29;;;;;;;8.47;3.83;;;10.00;99.90;;;;;;5014549;28;20545;-81
2023/10/24 05:54:55;;;;;;;9.17;3.80;;;10.00;99.90;;;;;;5032586;28;20178;-81
2023/10/24 05:57:23;;;;;;;6.07;4.13;;;9.60;99.90;;;;;;5032379;28;20237;-83
2023/10/24 05:59:49;;;;;;;6.80;3.57;;;9.70;99.90;;;;;;5032431;28;20173;-83
2023/10/24 06:02:14;;;;;;;13.40;4.13;;;9.90;99.90;;;;;;4998464;28;20243;-82
2023/10/24 06:04:40;;;;;;;11.73;4.17;;;9.90;99.90;;;;;;5032257;28;20675;-82
2023/10/24 06:07:07;;;;;;;5.97;4.00;;;9.80;99.90;;;;;;5032192;28;20643;-80
2023/10/24 06:09:33;;;;;;;18.40;4.37;;;;;;;;;;5032292;28;20203;-80
2023/10/24 06:11:58;;;;;;;7.27;4.00;;;9.90;99.90;;;;;;5033451;28;20205;-80
2023/10/24 06:14:24;;;;;;;7.10;3.93;;;;;;;;;;5026875;28;20202;-80
2023/10/24 06:16:50;;;;;;;14.07;4.20;;;;;;;;;;5012297;28;20206;-79
2023/10/24 06:19:16;;;;;;;29.67;4.40;;;9.90;99.90;;;;;;5012360;28;20265;-79
2023/10/24 06:21:42;;;;;;;67.93;5.77;;;9.80;99.90;;;;;;5012440;28;20292;-80
2023/10/24 06:24:08;;;;;;;20.07;3.73;;;;;;;;;;5012506;28;20526;-78
2023/10/24 06:26:33;;;;;;;44.43;4.40;;;9.50;99.90;;;;;;5012230;28;20171;-78
2023/10/24 06:28:59;;;;;;;55.23;4.77;;;9.70;99.90;;;;;;5012135;28;20174;-79
2023/10/24 06:31:26;;;;;;;19.90;4.33;;;9.70;99.90;;;;;;5012260;28;20230;-80
2023/10/24 06:33:52;;;;;;;56.27;5.23;;;;;;;;;;5029046;28;20632;-80
2023/10/24 06:36:18;;;;;;;36.57;4.77;;;9.60;99.90;;;;;;5031222;28;20268;-80
2023/10/24 06:38:44;;;;;;;35.97;4.70;;;;;;;;;;5014202;28;20197;-80
2023/10/24 06:41:10;;;;;;;43.60;4.60;;;;;;;;;;5031893;28;20213;-81
2023/10/24 06:43:36;;;;;;;30.00;4.10;;;;;;;;;;5032010;28;20174;-81
2023/10/24 06:46:05;;;;;;;113.43;6.80;;;9.30;99.90;;;;;;5031921;28;20173;-81
2023/10/24 06:48:32;;;;;;;115.53;7.50;;;9.50;99.90;;;;;;5031347;28;20208;-81
2023/10/24 06:50:58;;;;;;;61.67;5.87;;;9.50;99.90;;;;;;5031681;28;20169;-81
2023/10/24 06:53:24;;;;;;;105.20;7.17;;;9.40;99.90;;;;;;5031824;28;20210;-81
2023/10/24 06:55:50;;;;;;;109.03;7.07;;;;;;;;;;5031635;28;20184;-81
2023/10/24 06:58:15;;;;;;;85.63;6.80;;;9.80;99.90;;;;;;5013655;28;20174;-82
2023/10/24 07:00:42;;;;;;;69.27;6.37;;;9.50;99.90;;;;;;5013734;28;20260;-82
2023/10/24 07:03:08;;;;;;;46.10;5.40;;;;;;;;;;5031820;28;20174;-82
2023/10/24 07:05:34;;;;;;;84.40;6.80;;;9.70;99.90;;;;;;5029786;28;20707;-81
2023/10/24 07:08:00;;;;;;;139.27;8.23;;;;;;;;;;4996378;28;20225;-80
2023/10/24 07:10:26;;;;;;;70.67;5.87;;;;;;;;;;5010604;28;20202;-80
2023/10/24 07:12:52;;;;;;;56.87;6.03;;;;;;;;;;5031530;28;20247;-81
2023/10/24 07:15:18;;;;;;;39.83;6.13;;;9.90;99.90;;;;;;5035545;28;20174;-81
2023/10/24 07:17:44;;;;;;;73.37;7.17;;;;;;;;;;5037456;28;20174;-81
2023/10/24 07:20:10;;;;;;;43.70;6.20;;;;;;;;;;5041398;28;20197;-81
2023/10/24 07:22:36;;;;;;;42.17;6.43;;;;;;;;;;5039875;28;20225;-79
2023/10/24 07:25:02;;;;;;;46.90;5.73;;;;;;;;;;5030833;28;20753;-82
2023/10/24 07:27:28;;;;;;;52.60;5.97;;;9.90;99.90;;;;;;5030561;28;20229;-77
2023/10/24 07:29:53;;;;;;;37.00;5.47;;;10.10;99.90;;;;;;5030878;28;20206;-79
2023/10/24 07:32:19;;;;;;;26.33;5.13;;;;;;;;;;5031020;28;20177;-77
2023/10/24 07:34:47;;;;;;;26.80;4.97;;;10.00;99.90;;;;;;5030371;28;20652;-76
2023/10/24 07:37:13;;;;;;;31.87;4.27;;;10.40;99.90;;;;;;5012923;28;20182;-78
2023/10/24 07:39:39;;;;;;;32.10;5.07;;;;;;;;;;5030857;28;20227;-77
2023/10/24 07:42:05;;;;;;;43.13;4.97;;;9.70;99.90;;;;;;5030809;28;20567;-76
2023/10/24 07:44:30;;;;;;;67.70;5.30;;;9.90;99.90;;;;;;5030927;28;20202;-76
2023/10/24 07:46:56;;;;;;;18.83;4.20;;;;;;;;;;5030580;28;20719;-76
2023/10/24 07:49:22;;;;;;;16.00;4.43;;;;;;;;;;5031086;28;20251;-77
2023/10/24 07:51:48;;;;;;;15.77;4.63;;;10.20;99.90;;;;;;5031109;28;20177;-76
2023/10/24 07:54:14;;;;;;;24.60;4.57;;;;;;;;;;5030860;28;20170;-77
2023/10/24 07:56:40;;;;;;;28.23;4.40;;;10.40;99.90;;;;;;5031041;28;20184;-77
2023/10/24 07:59:07;;;;;;;38.00;5.40;;;10.30;99.90;;;;;;5030646;28;20170;-75
2023/10/24 08:01:33;;;;;;;40.67;4.60;;;10.20;99.90;;;;;;5030863;28;20184;-80
2023/10/24 08:03:59;;;;;;;124.23;6.77;;;;;;;;;;5033569;28;20201;-80
2023/10/24 08:06:25;;;;;;;40.87;4.97;;;10.10;99.90;;;;;;5054788;28;20173;-78
2023/10/24 08:08:51;;;;;;;122.63;6.77;;;10.50;99.90;;;;;;5047312;28;20240;-79
2023/10/24 08:11:17;;;;;;;23.70;4.30;;;10.50;99.90;;;;;;5019606;28;20696;-79
2023/10/24 08:13:42;;;;;;;50.97;4.83;;;10.50;99.90;;;;;;5035027;28;20223;-79
2023/10/24 08:16:08;;;;;;;28.00;4.50;;;10.50;99.90;;;;;;5034334;28;20169;-81
2023/10/24 08:18:36;;;;;;;60.87;5.63;;;10.50;99.90;;;;;;5034414;28;20265;-79
2023/10/24 08:21:02;;;;;;;18.57;4.73;;;10.30;99.90;;;;;;5034331;28;20186;-79
2023/10/24 08:23:28;;;;;;;13.63;4.53;;;10.50;99.90;;;;;;5034691;28;20185;-80
2023/10/24 08:25:54;;;;;;;17.20;5.10;;;10.60;99.90;;;;;;5037348;28;20185;-80
2023/10/24 08:28:20;;;;;;;20.93;6.17;;;10.50;99.90;;;;;;5032819;28;20182;-80
2023/10/24 08:30:46;;;;;;;11.33;5.90;;;10.60;99.90;;;;;;5030247;28;20561;-80
2023/10/24 08:33:11;;;;;;;21.07;6.40;;;10.40;99.90;;;;;;5033800;28;20202;-80
2023/10/24 08:35:37;;;;;;;11.67;5.93;;;10.50;99.90;;;;;;5033981;28;20165;-79
2023/10/24 08:38:03;;;;;;;10.83;5.83;;;10.50;99.90;;;;;;5033860;28;20243;-80
2023/10/24 08:40:29;;;;;;;11.73;5.77;;;10.60;99.90;;;;;;5033724;28;20174;-81
2023/10/24 08:42:55;;;;;;;10.47;5.67;;;11.00;99.90;;;;;;5034258;28;20198;-81
2023/10/24 08:45:21;;;;;;;11.97;4.67;;;10.80;99.90;;;;;;5033872;28;20248;-81
2023/10/24 08:47:47;;;;;;;11.63;4.87;;;11.10;99.90;;;;;;5034292;28;20174;-80
2023/10/24 08:50:13;;;;;;;7.90;4.40;;;11.00;99.90;;;;;;5034500;28;20188;-81
2023/10/24 08:52:39;;;;;;;7.00;4.20;;;11.10;99.90;;;;;;5035981;28;20184;-81
2023/10/24 08:55:05;;;;;;;7.50;4.53;;;11.20;99.90;;;;;;5047847;28;20182;-82
2023/10/24 08:57:50;;;;;;;5.63;4.03;;;11.30;99.90;;;;;;5044701;28;20376;-80
2023/10/24 09:00:16;;;;;;;6.83;3.70;;;11.40;99.90;;;;;;5037602;28;20665;-78
2023/10/24 09:02:44;;;;;;;8.63;3.50;;;11.80;99.90;;;;;;5035644;28;20170;-81
2023/10/24 09:05:11;;;;;;;6.70;3.37;;;11.60;99.90;;;;;;5039080;28;20218;-79
2023/10/24 09:07:37;;;;;;;7.43;3.33;;;11.80;99.90;;;;;;5036940;28;20220;-81
2023/10/24 09:10:03;;;;;;;5.57;2.93;;;;;;;;;;5035994;28;20181;-80
2023/10/24 09:12:33;;;;;;;7.33;3.13;;;12.10;99.90;;;;;;5032714;28;20178;-76
2023/10/24 09:14:59;;;;;;;5.33;2.57;;;12.00;99.90;;;;;;5031416;28;20182;-77
2023/10/24 09:17:25;;;;;;;5.67;2.53;;;12.00;99.90;;;;;;5032710;28;20243;-77
2023/10/24 09:19:55;;;;;;;8.90;2.90;;;12.20;99.90;;;;;;5013996;28;20537;-77
2023/10/24 09:22:21;;;;;;;5.43;2.13;;;;;;;;;;5032836;28;20235;-76
2023/10/24 09:24:49;;;;;;;6.40;2.30;;;12.40;99.90;;;;;;5032672;28;20304;-76
2023/10/24 09:27:21;;;;;;;8.47;2.23;;;12.60;99.90;;;;;;5014906;28;20221;-77
2023/10/24 09:29:49;;;;;;;8.73;2.47;;;12.60;99.90;;;;;;5032532;28;20192;-76
2023/10/24 09:32:15;;;;;;;4.90;2.00;;;12.60;99.90;;;;;;5032954;28;20572;-76
2023/10/24 09:34:45;;;;;;;4.53;1.80;;;12.50;99.90;;;;;;5032243;28;20256;-75
2023/10/24 09:37:13;;;;;;;8.33;1.87;;;12.80;99.90;;;;;;5033978;28;20177;-76
2023/10/24 09:39:58;;;;;;;5.17;1.83;;;12.90;99.90;;;;;;5032404;28;20177;-77
2023/10/24 09:42:28;;;;;;;4.43;1.63;;;12.90;99.90;;;;;;5028908;28;20176;-77
2023/10/24 09:44:56;;;;;;;4.73;1.43;;;13.10;99.90;;;;;;5032600;28;20202;-75
2023/10/24 09:47:28;;;;;;;7.77;1.67;;;13.00;99.90;;;;;;5014926;28;20695;-76
2023/10/24 09:49:55;;;;;;;5.22;1.80;;;13.30;99.90;;;;;;5032608;28;20174;-76
2023/10/24 09:52:26;;;;;;;4.40;1.60;;;13.20;99.90;;;;;;5031609;28;20173;-76
2023/10/24 09:54:52;;;;;;;5.13;1.93;;;13.30;99.90;;;;;;5030418;28;20182;-76
2023/10/24 09:57:19;;;;;;;8.85;2.25;;;13.60;99.90;;;;;;5031854;28;20189;-79
2023/10/24 09:59:54;;;;;;;6.38;2.10;;;13.70;99.90;;;;;;5031746;28;20225;-78
2023/10/24 10:02:26;;;;;;;8.47;2.47;;;13.90;99.90;;;;;;5012866;28;20487;-77
2023/10/24 10:04:52;;;;;;;8.85;1.98;;;13.90;99.90;;;;;;5033337;28;20213;-78
2023/10/24 10:07:20;;;;;;;14.07;3.10;;;13.90;99.90;;;;;;5032722;28;20181;-79
2023/10/24 10:09:48;;;;;;;6.95;1.80;;;13.90;99.90;;;;;;5016932;28;20174;-79
2023/10/24 10:12:17;;;;;;;9.50;1.77;;;14.20;99.90;;;;;;5036087;28;20526;-79
2023/10/24 10:15:09;;;;;;;4.18;1.40;;;14.30;99.90;;;;;;5035022;28;20691;-79
2023/10/24 10:17:35;;;;;;;7.78;1.85;;;14.40;99.90;;;;;;5026067;28;20178;-79
2023/10/24 10:20:29;;;;;;;5.15;1.35;;;14.40;99.90;;;;;;5038441;28;20251;-79
2023/10/24 10:23:10;;;;;;;11.07;1.60;;;14.70;99.90;;;;;;5030823;28;20217;-80
2023/10/24 10:25:49;;;;;;;11.43;1.50;;;14.90;99.90;;;;;;5031549;28;20209;-79
2023/10/24 10:28:36;;;;;;;8.82;1.13;;;14.90;99.90;;;;;;5030834;28;20193;-79
2023/10/24 10:31:28;;;;;;;10.02;1.65;;;15.10;99.90;;;;;;5031434;28;20457;-79
2023/10/24 10:33:57;;;;;;;7.55;1.30;;;15.00;99.90;;;;;;5026343;28;20181;-79
2023/10/24 10:36:24;;;;;;;12.60;1.50;;;15.20;99.90;;;;;;5057108;28;20201;-78
2023/10/24 10:38:50;;;;;;;13.35;1.58;;;15.40;99.90;;;;;;5039810;28;20236;-79
2023/10/24 10:41:22;;;;;;;8.20;1.20;;;15.30;99.90;;;;;;5035612;28;20174;-79
2023/10/24 10:43:49;;;;;;;6.20;0.80;;;15.60;99.90;;;;;;5032797;28;20253;-79
2023/10/24 10:46:20;;;;;;;9.38;1.10;;;15.70;99.90;;;;;;5034520;28;20552;-79
2023/10/24 10:48:49;;;;;;;10.38;0.93;;;15.80;99.90;;;;;;5034247;28;20174;-80
2023/10/24 10:51:23;;;;;;;4.43;1.40;;;15.80;99.90;;;;;;5033364;28;20180;-80
2023/10/24 10:54:12;;;;;;;15.02;1.40;;;16.20;99.90;;;;;;5034190;28;20162;-80
2023/10/24 10:56:39;;;;;;;9.15;1.05;;;16.20;99.90;;;;;;5016118;28;20178;-80
2023/10/24 10:59:08;;;;;;;7.15;1.13;;;16.60;99.90;;;;;;5034559;28;20684;-80
2023/10/24 11:02:18;;;;;;;11.43;1.05;;;17.90;99.90;;;;;;5033062;28;20220;-79
2023/10/24 11:04:44;;;;;;;5.07;0.75;;;17.20;99.90;;;;;;4939034;29;20217;-81
2023/10/24 11:07:09;;;;;;;9.48;0.80;;;17.60;99.90;;;;;;4933208;29;20181;-81
2023/10/24 11:09:41;;;;;;;7.43;0.90;;;19.60;99.90;;;;;;4972368;28;20600;-81
2023/10/24 11:12:24;;;;;;;8.88;1.02;;;21.60;99.90;;;;;;5012976;28;20212;-81
2023/10/24 11:15:13;;;;;;;8.13;1.08;;;23.80;99.90;;;;;;5014397;28;20182;-81
2023/10/24 11:17:39;;;;;;;8.40;1.20;;;24.80;99.90;;;;;;5013849;28;20604;-81
2023/10/24 11:20:05;;;;;;;7.15;1.10;;;25.60;99.90;;;;;;5011557;28;20169;-80
2023/10/24 11:22:31;;;;;;;5.72;1.10;;;25.50;99.90;;;;;;4993715;28;20345;-80
2023/10/24 11:24:58;;;;;;;6.03;1.10;;;25.90;99.90;;;;;;5011473;28;20213;-80
2023/10/24 11:27:23;;;;;;;8.98;1.55;;;27.60;99.90;;;;;;5011505;28;20167;-82
2023/10/24 11:29:52;;;;;;;6.95;1.38;;;26.50;99.90;;;;;;5011184;28;20300;-80
2023/10/24 11:32:19;;;;;;;2.92;0.88;;;26.50;99.90;;;;;;5011513;28;20196;-80
2023/10/24 11:34:46;;;;;;;6.57;1.23;;;26.80;99.90;;;;;;5011090;28;20236;-79
2023/10/24 11:37:12;;;;;;;7.40;1.30;;;27.10;1.00;;;;;;5011297;28;20189;-80
2023/10/24 11:39:41;;;;;;;6.03;1.25;;;27.30;1.00;;;;;;5011385;28;20171;-81
2023/10/24 11:42:07;;;;;;;6.15;1.38;;;;;;;;;;5027022;28;20675;-81
2023/10/24 11:44:33;;;;;;;4.30;0.98;;;28.40;99.90;;;;;;5036762;28;20205;-80
2023/10/24 11:46:59;;;;;;;8.85;1.23;;;;;;;;;;5037116;28;20173;-79
2023/10/24 11:49:35;;;;;;;6.88;1.42;;;26.70;1.00;;;;;;5019280;28;20181;-79
2023/10/24 11:52:05;;;;;;;3.47;1.00;;;25.90;1.00;;;;;;5036016;28;20173;-80
2023/10/24 11:54:31;;;;;;;6.68;1.10;;;;;;;;;;5035105;28;20186;-81
2023/10/24 11:56:57;;;;;;;6.88;1.30;;;24.70;1.00;;;;;;5035029;28;20177;-81
2023/10/24 11:59:22;;;;;;;7.82;1.40;;;24.60;1.00;;;;;;5036500;28;20547;-79
2023/10/24 12:01:49;;;;;;;5.50;1.40;;;24.10;1.00;;;;;;5035936;28;20170;-79
2023/10/24 12:04:15;;;;;;;4.32;1.40;;;24.20;1.00;;;;;;5034667;28;20233;-79
2023/10/24 12:06:41;;;;;;;6.47;1.35;;;23.70;1.00;;;;;;5036133;28;20189;-80
2023/10/24 12:09:07;;;;;;;7.35;1.17;;;22.00;99.90;;;;;;5035603;28;20189;-81
2023/10/24 12:11:34;;;;;;;5.50;1.17;;;21.40;99.90;;;;;;5034473;28;20257;-81
2023/10/24 12:14:00;;;;;;;6.90;1.40;;;21.10;99.90;;;;;;5036891;28;20224;-81
2023/10/24 12:16:29;;;;;;;9.23;1.20;;;21.50;1.00;;;;;;5034448;28;20269;-80
2023/10/24 12:18:55;;;;;;;11.15;1.38;;;21.80;72.00;;;;;;5035741;28;20260;-80
2023/10/24 12:21:21;;;;;;;5.57;1.42;;;23.40;1.00;;;;;;5035973;28;20774;-80
2023/10/24 12:23:46;;;;;;;10.63;1.20;;;22.40;1.00;;;;;;5034433;28;20178;-80
2023/10/24 12:26:12;;;;;;;7.60;1.25;;;;;;;;;;5035519;28;20631;-80
2023/10/24 12:28:42;;;;;;;4.40;0.80;;;22.50;99.90;;;;;;5034899;28;20249;-80
2023/10/24 12:31:08;;;;;;;6.43;1.15;;;22.60;1.00;;;;;;5031054;28;20640;-83
2023/10/24 12:33:34;;;;;;;5.55;1.40;;;23.30;1.00;;;;;;5014519;28;20703;-81
2023/10/24 12:36:00;;;;;;;6.75;1.38;;;25.50;1.00;;;;;;4997122;28;20174;-80
2023/10/24 12:38:26;;;;;;;8.05;1.45;;;24.80;1.00;;;;;;5019199;28;20201;-81
2023/10/24 12:40:52;;;;;;;5.38;1.08;;;23.80;1.00;;;;;;5033480;28;20179;-81
2023/10/24 12:43:18;;;;;;;7.30;1.30;;;23.90;1.00;;;;;;5033999;28;20667;-82
2023/10/24 12:45:44;;;;;;;6.22;1.05;;;23.90;1.00;;;;;;5034169;28;20300;-81
2023/10/24 12:48:13;;;;;;;13.23;1.48;;;25.10;1.00;;;;;;5034599;28;20714;-80
2023/10/24 12:50:40;;;;;;;9.80;1.05;;;26.10;1.00;;;;;;5033904;28;20178;-85
2023/10/24 12:53:06;;;;;;;4.90;1.35;;;26.60;1.00;;;;;;5033910;28;20232;-80
2023/10/24 12:55:32;;;;;;;4.63;0.85;;;27.60;1.00;;;;;;5034698;28;20249;-86